createdAt,value
2018-12-20T00:01:44.575Z,28.60
2018-12-20T00:04:48.678Z,27.67
2018-12-20T00:07:52.805Z,27.43
2018-12-20T00:10:56.953Z,28.60
2018-12-20T00:14:00.980Z,27.33
2018-12-20T00:17:10.524Z,27.47
2018-12-20T00:20:14.574Z,27.63
2018-12-20T00:23:18.682Z,27.70
2018-12-20T00:26:22.784Z,26.37
2018-12-20T00:29:26.857Z,26.40
2018-12-20T00:32:30.908Z,26.40
2018-12-20T00:35:34.967Z,27.40
2018-12-20T00:38:39.106Z,27.23
2018-12-20T00:41:43.243Z,26.30
2018-12-20T00:44:47.340Z,28.27
2018-12-20T00:47:51.338Z,25.30
2018-12-20T00:50:55.521Z,27.47
2018-12-20T00:53:59.786Z,26.87
2018-12-20T00:57:03.869Z,27.13
2018-12-20T01:00:10.449Z,25.03
2018-12-20T01:03:14.621Z,25.20
2018-12-20T01:06:18.858Z,28.00
2018-12-20T01:09:23.079Z,25.77
2018-12-20T01:12:27.357Z,23.67
2018-12-20T01:15:31.604Z,25.03
2018-12-20T01:18:35.618Z,25.43
2018-12-20T01:21:39.992Z,23.30
2018-12-20T01:24:44.161Z,26.57
2018-12-20T01:27:48.248Z,28.17
2018-12-20T01:30:52.517Z,23.43
2018-12-20T01:33:56.657Z,23.80
2018-12-20T01:37:00.671Z,22.97
2018-12-20T01:40:05.671Z,24.60
2018-12-20T01:43:09.784Z,25.63
2018-12-20T01:46:13.843Z,24.77
2018-12-20T01:49:18.051Z,23.07
2018-12-20T01:52:22.250Z,24.87
2018-12-20T01:55:26.403Z,22.60
2018-12-20T01:58:30.598Z,22.23
2018-12-20T02:01:34.656Z,23.67
2018-12-20T02:04:38.730Z,22.43
2018-12-20T02:07:42.851Z,22.77
2018-12-20T02:10:46.981Z,22.77
2018-12-20T02:13:51.066Z,22.80
2018-12-20T02:16:55.113Z,26.57
2018-12-20T02:19:59.254Z,21.80
2018-12-20T02:23:03.620Z,23.20
2018-12-20T02:26:07.857Z,23.13
2018-12-20T02:29:11.935Z,22.20
2018-12-20T02:32:16.005Z,24.20
2018-12-20T02:35:20.151Z,23.43
2018-12-20T02:38:24.307Z,23.03
2018-12-20T02:41:28.492Z,23.60
2018-12-20T02:44:32.574Z,23.47
2018-12-20T02:47:36.605Z,22.63
2018-12-20T02:50:40.867Z,25.87
2018-12-20T02:53:45.114Z,22.80
2018-12-20T02:56:49.288Z,22.60
2018-12-20T02:59:53.796Z,22.53
2018-12-20T03:02:58.213Z,25.40
2018-12-20T03:06:02.272Z,24.30
2018-12-20T03:09:08.581Z,24.30
2018-12-20T03:12:12.839Z,24.63
2018-12-20T03:15:20.142Z,24.20
2018-12-20T03:18:22.875Z,24.10
2018-12-20T03:21:26.926Z,23.03
2018-12-20T03:24:31.190Z,23.50
2018-12-20T03:27:35.371Z,21.20
2018-12-20T03:30:39.599Z,23.23
2018-12-20T03:33:44.014Z,23.80
2018-12-20T03:36:48.274Z,26.93
2018-12-20T03:39:52.571Z,23.00
2018-12-20T03:42:56.801Z,24.50
2018-12-20T03:46:01.095Z,22.33
2018-12-20T03:49:05.485Z,20.60
2018-12-20T03:52:09.654Z,21.97
2018-12-20T03:55:13.870Z,23.70
2018-12-20T03:58:17.942Z,23.83
2018-12-20T04:01:22.347Z,22.63
2018-12-20T04:04:26.622Z,21.37
2018-12-20T04:07:31.067Z,22.63
2018-12-20T04:10:35.199Z,21.80
2018-12-20T04:13:39.259Z,22.40
2018-12-20T04:16:43.533Z,22.10
2018-12-20T04:19:47.671Z,22.63
2018-12-20T04:22:52.084Z,22.40
2018-12-20T04:25:56.351Z,24.40
2018-12-20T04:29:00.478Z,22.10
2018-12-20T04:32:04.628Z,22.20
2018-12-20T04:35:08.719Z,23.77
2018-12-20T04:38:12.898Z,22.80
2018-12-20T04:41:17.420Z,23.50
2018-12-20T04:44:21.439Z,23.23
2018-12-20T04:47:25.482Z,21.70
2018-12-20T04:50:29.744Z,22.00
2018-12-20T04:53:33.850Z,21.30
2018-12-20T04:56:37.983Z,23.10
2018-12-20T04:59:42.475Z,22.03
2018-12-20T05:02:46.588Z,21.40
2018-12-20T05:05:50.819Z,22.20
2018-12-20T05:08:55.087Z,22.93
2018-12-20T05:11:59.496Z,22.23
2018-12-20T05:15:04.054Z,22.90
2018-12-20T05:18:09.002Z,22.60
2018-12-20T05:21:13.101Z,25.20
2018-12-20T05:24:17.383Z,23.17
2018-12-20T05:27:21.496Z,23.40
2018-12-20T05:30:26.104Z,23.33
2018-12-20T05:33:30.873Z,23.80
2018-12-20T05:36:35.001Z,21.70
2018-12-20T05:39:39.229Z,23.90
2018-12-20T05:42:43.541Z,22.30
2018-12-20T05:45:47.769Z,22.53
2018-12-20T05:48:52.094Z,22.77
2018-12-20T05:51:56.387Z,24.10
2018-12-20T05:55:00.735Z,23.63
2018-12-20T05:58:05.581Z,23.53
2018-12-20T06:01:10.001Z,24.70
2018-12-20T06:04:14.392Z,23.00
2018-12-20T06:07:18.699Z,21.50
2018-12-20T06:10:22.762Z,21.83
2018-12-20T06:13:26.848Z,24.70
2018-12-20T06:16:30.866Z,24.70
2018-12-20T06:19:35.009Z,22.20
2018-12-20T06:22:39.086Z,22.23
2018-12-20T06:25:43.111Z,20.40
2018-12-20T06:28:47.115Z,21.03
2018-12-20T06:31:51.134Z,22.30
2018-12-20T06:34:55.136Z,20.43
2018-12-20T06:37:59.141Z,23.70
2018-12-20T06:41:03.165Z,23.80
2018-12-20T06:44:07.510Z,21.60
2018-12-20T06:47:11.674Z,24.47
2018-12-20T06:50:15.681Z,23.90
2018-12-20T06:53:19.802Z,23.13
2018-12-20T06:56:23.795Z,25.90
2018-12-20T06:59:27.801Z,25.20
2018-12-20T07:02:31.972Z,22.80
2018-12-20T07:05:36.046Z,24.43
2018-12-20T07:08:40.081Z,23.97
2018-12-20T07:11:44.080Z,22.70
2018-12-20T07:14:48.090Z,21.40
2018-12-20T07:17:52.303Z,23.40
2018-12-20T07:20:56.302Z,21.37
2018-12-20T07:24:00.305Z,22.03
2018-12-20T07:27:04.422Z,19.60
2018-12-20T07:30:10.022Z,21.30
2018-12-20T07:33:14.043Z,24.50
2018-12-20T07:36:18.055Z,23.20
2018-12-20T07:39:22.074Z,21.67
2018-12-20T07:42:26.170Z,20.83
2018-12-20T07:45:30.187Z,22.10
2018-12-20T07:48:34.196Z,20.37
2018-12-20T07:51:38.210Z,18.63
2018-12-20T07:54:42.241Z,20.23
2018-12-20T07:57:46.238Z,20.03
2018-12-20T08:00:50.332Z,21.50
2018-12-20T08:03:54.351Z,19.90
2018-12-20T08:06:58.355Z,20.53
2018-12-20T08:10:02.454Z,19.07
2018-12-20T08:13:06.474Z,21.77
2018-12-20T08:16:10.556Z,19.97
2018-12-20T08:19:14.571Z,20.07
2018-12-20T08:22:18.570Z,21.00
2018-12-20T08:25:22.586Z,20.57
2018-12-20T08:28:26.582Z,20.27
2018-12-20T08:31:30.606Z,20.97
2018-12-20T08:34:34.631Z,22.30
2018-12-20T08:37:38.634Z,21.37
2018-12-20T08:40:42.649Z,20.40
2018-12-20T08:43:46.682Z,20.50
2018-12-20T08:46:54.340Z,22.30
2018-12-20T08:49:56.777Z,21.30
2018-12-20T08:53:00.759Z,20.57
2018-12-20T08:56:04.758Z,18.93
2018-12-20T08:59:08.759Z,19.57
2018-12-20T09:02:12.770Z,20.07
2018-12-20T09:05:16.798Z,22.30
2018-12-20T09:08:20.810Z,20.10
2018-12-20T09:11:24.828Z,17.77
2018-12-20T09:14:28.838Z,19.60
2018-12-20T09:17:32.924Z,18.37
2018-12-20T09:20:36.944Z,17.90
2018-12-20T09:23:40.942Z,17.00
2018-12-20T09:26:45.126Z,18.03
2018-12-20T09:29:49.151Z,17.50
2018-12-20T09:32:53.170Z,15.80
2018-12-20T09:35:57.181Z,15.83
2018-12-20T09:39:01.220Z,14.87
2018-12-20T09:42:05.331Z,14.60
2018-12-20T09:45:09.624Z,14.60
2018-12-20T09:48:13.726Z,13.30
2018-12-20T09:51:17.750Z,15.20
2018-12-20T09:54:21.765Z,13.93
2018-12-20T09:57:27.452Z,13.67
2018-12-20T10:00:31.468Z,13.67
2018-12-20T10:03:35.487Z,12.70
2018-12-20T10:06:39.654Z,13.90
2018-12-20T10:09:43.671Z,13.30
2018-12-20T10:12:47.670Z,14.27
2018-12-20T10:15:51.765Z,14.63
2018-12-20T10:18:55.868Z,15.50
2018-12-20T10:21:59.898Z,14.73
2018-12-20T10:25:04.281Z,13.50
2018-12-20T10:28:08.285Z,14.43
2018-12-20T10:31:12.352Z,14.30
2018-12-20T10:34:16.355Z,12.47
2018-12-20T10:37:20.365Z,12.90
2018-12-20T10:40:24.382Z,11.90
2018-12-20T10:43:28.398Z,13.20
2018-12-20T10:46:32.403Z,10.63
2018-12-20T10:49:36.434Z,12.57
2018-12-20T10:52:40.440Z,10.80
2018-12-20T10:55:44.543Z,10.83
2018-12-20T10:58:48.566Z,10.27
2018-12-20T11:01:58.006Z,9.90
2018-12-20T11:05:04.738Z,10.83
2018-12-20T11:08:14.286Z,11.57
2018-12-20T11:11:21.634Z,9.80
2018-12-20T11:14:25.810Z,11.23
2018-12-20T11:17:37.124Z,10.83
2018-12-20T11:20:36.035Z,9.67
2018-12-20T11:23:40.030Z,8.30
2018-12-20T11:26:44.058Z,9.50
2018-12-20T11:29:48.066Z,7.97
2018-12-20T11:32:52.435Z,8.53
2018-12-20T11:35:56.502Z,7.10
2018-12-20T11:39:08.166Z,6.80
2018-12-20T11:42:06.502Z,6.63
2018-12-20T11:45:10.506Z,6.50
2018-12-20T11:48:14.599Z,5.67
2018-12-20T11:51:18.681Z,6.10
2018-12-20T11:54:22.670Z,5.67
2018-12-20T11:57:26.678Z,5.23
2018-12-20T12:00:32.690Z,5.43
2018-12-20T12:03:38.536Z,4.90
2018-12-20T12:06:42.767Z,6.70
2018-12-20T12:09:46.820Z,6.40
2018-12-20T12:12:50.828Z,6.53
2018-12-20T12:15:54.830Z,7.03
2018-12-20T12:18:58.994Z,7.17
2018-12-20T12:22:03.091Z,7.13
2018-12-20T12:25:08.018Z,7.20
2018-12-20T12:28:12.018Z,6.67
2018-12-20T12:31:16.014Z,5.80
2018-12-20T12:34:20.027Z,7.33
2018-12-20T12:37:24.034Z,6.67
2018-12-20T12:40:28.035Z,8.40
2018-12-20T12:43:32.030Z,8.03
2018-12-20T12:46:36.044Z,7.97
2018-12-20T12:49:40.049Z,7.83
2018-12-20T12:52:44.046Z,8.90
2018-12-20T12:55:48.054Z,8.23
2018-12-20T12:58:52.071Z,9.43
2018-12-20T13:01:56.170Z,8.33
2018-12-20T13:05:00.179Z,8.63
2018-12-20T13:08:04.183Z,8.87
2018-12-20T13:11:08.209Z,9.97
2018-12-20T13:14:12.321Z,9.17
2018-12-20T13:17:16.314Z,9.10
2018-12-20T13:20:20.321Z,10.13
2018-12-20T13:23:25.690Z,10.90
2018-12-20T13:26:29.938Z,11.60
2018-12-20T13:29:34.071Z,11.00
2018-12-20T13:32:39.006Z,10.43
2018-12-20T13:35:43.050Z,10.40
2018-12-20T13:38:47.090Z,10.80
2018-12-20T13:41:51.099Z,10.73
2018-12-20T13:44:55.122Z,10.37
2018-12-20T13:47:59.122Z,11.30
2018-12-20T13:51:03.141Z,16.80
2018-12-20T13:54:07.154Z,15.53
2018-12-20T13:57:11.156Z,12.20
2018-12-20T14:00:15.756Z,9.47
2018-12-20T14:03:19.759Z,10.40
2018-12-20T14:06:23.806Z,11.57
2018-12-20T14:09:27.819Z,10.50
2018-12-20T14:12:31.819Z,11.53
2018-12-20T14:15:35.855Z,12.00
2018-12-20T14:18:39.862Z,13.10
2018-12-20T14:21:43.978Z,12.97
2018-12-20T14:24:47.999Z,10.13
2018-12-20T14:27:52.090Z,8.83
2018-12-20T14:30:56.104Z,9.00
2018-12-20T14:34:00.117Z,9.20
2018-12-20T14:37:04.140Z,10.00
2018-12-20T14:40:09.630Z,7.33
2018-12-20T14:43:13.813Z,6.37
2018-12-20T14:46:17.879Z,6.13
2018-12-20T14:49:21.875Z,5.70
2018-12-20T14:52:25.871Z,5.97
2018-12-20T14:55:29.961Z,4.53
2018-12-20T14:58:33.958Z,5.10
2018-12-20T15:01:37.975Z,5.80
2018-12-20T15:04:41.976Z,5.07
2018-12-20T15:07:46.102Z,4.97
2018-12-20T15:10:50.092Z,4.53
2018-12-20T15:13:54.112Z,4.40
2018-12-20T15:16:58.105Z,4.27
2018-12-20T15:20:02.110Z,3.80
2018-12-20T15:23:06.567Z,3.47
2018-12-20T15:26:10.829Z,3.00
2018-12-20T15:29:14.921Z,2.90
2018-12-20T15:32:18.922Z,3.50
2018-12-20T15:35:22.922Z,3.80
2018-12-20T15:38:26.951Z,4.60
2018-12-20T15:41:30.931Z,3.20
2018-12-20T15:44:34.926Z,3.97
2018-12-20T15:47:38.927Z,2.83
2018-12-20T15:50:42.912Z,3.30
2018-12-20T15:53:46.906Z,3.73
2018-12-20T15:56:50.914Z,4.03
2018-12-20T15:59:54.975Z,4.10
2018-12-20T16:02:58.978Z,5.00
2018-12-20T16:06:03.005Z,5.50
2018-12-20T16:09:07.690Z,5.37
2018-12-20T16:12:11.871Z,5.43
2018-12-20T16:15:15.874Z,7.60
2018-12-20T16:18:19.883Z,9.53
2018-12-20T16:21:23.899Z,7.00
2018-12-20T16:24:27.902Z,6.77
2018-12-20T16:27:32.027Z,7.60
2018-12-20T16:30:36.511Z,7.70
2018-12-20T16:33:40.506Z,8.00
2018-12-20T16:36:44.501Z,7.63
2018-12-20T16:39:48.627Z,11.83
2018-12-20T16:42:53.092Z,7.83
2018-12-20T16:45:57.122Z,8.27
2018-12-20T16:49:01.120Z,8.63
2018-12-20T16:52:05.210Z,7.70
2018-12-20T16:55:09.430Z,8.23
2018-12-20T16:58:13.427Z,8.60
2018-12-20T17:01:17.518Z,8.27
2018-12-20T17:04:21.522Z,8.70
2018-12-20T17:07:25.610Z,8.17
2018-12-20T17:10:29.633Z,9.23
2018-12-20T17:13:33.698Z,10.50
2018-12-20T17:16:37.721Z,9.97
2018-12-20T17:19:41.836Z,8.47
2018-12-20T17:22:45.855Z,8.03
2018-12-20T17:25:49.858Z,7.97
2018-12-20T17:28:53.858Z,8.67
2018-12-20T17:31:57.863Z,8.90
2018-12-20T17:35:01.870Z,8.87
2018-12-20T17:38:05.866Z,9.80
2018-12-20T17:41:09.882Z,10.87
2018-12-20T17:44:13.996Z,12.13
2018-12-20T17:47:18.190Z,14.60
2018-12-20T17:50:22.324Z,15.50
2018-12-20T17:53:26.734Z,15.13
2018-12-20T17:56:30.740Z,12.63
2018-12-20T17:59:34.779Z,14.23
2018-12-20T18:02:38.828Z,12.90
2018-12-20T18:05:42.848Z,11.10
2018-12-20T18:08:46.944Z,11.07
2018-12-20T18:11:50.946Z,12.37
2018-12-20T18:14:54.957Z,13.40
2018-12-20T18:17:58.977Z,11.90
2018-12-20T18:21:03.030Z,10.40
2018-12-20T18:24:07.038Z,10.80
2018-12-20T18:27:11.686Z,10.43
2018-12-20T18:30:15.689Z,9.73
2018-12-20T18:33:19.706Z,8.53
2018-12-20T18:36:23.702Z,9.03
2018-12-20T18:39:27.820Z,9.77
2018-12-20T18:42:31.840Z,8.37
2018-12-20T18:45:35.827Z,8.57
2018-12-20T18:48:39.828Z,8.50
2018-12-20T18:51:43.831Z,9.80
2018-12-20T18:54:47.846Z,9.70
2018-12-20T18:57:51.854Z,9.00
2018-12-20T19:00:55.945Z,9.10
2018-12-20T19:03:59.969Z,7.83
2018-12-20T19:07:04.059Z,7.20
2018-12-20T19:10:09.099Z,5.00
2018-12-20T19:13:13.155Z,5.10
2018-12-20T19:16:17.530Z,5.03
2018-12-20T19:19:21.544Z,6.20
2018-12-20T19:22:25.550Z,5.17
2018-12-20T19:25:31.207Z,4.60
2018-12-20T19:28:35.300Z,4.00
2018-12-20T19:31:39.517Z,3.67
2018-12-20T19:34:43.721Z,4.70
2018-12-20T19:37:48.231Z,3.90
2018-12-20T19:40:52.299Z,3.90
2018-12-20T19:43:56.779Z,4.97
2018-12-20T19:47:01.230Z,4.10
2018-12-20T19:50:06.883Z,4.53
2018-12-20T19:53:11.028Z,4.90
2018-12-20T19:56:15.102Z,5.37
2018-12-20T19:59:19.110Z,4.37
2018-12-20T20:02:23.310Z,4.93
2018-12-20T20:05:27.322Z,5.37
2018-12-20T20:08:31.332Z,5.20
2018-12-20T20:11:35.361Z,5.50
2018-12-20T20:14:39.379Z,5.83
2018-12-20T20:17:43.368Z,4.37
2018-12-20T20:20:47.391Z,4.67
2018-12-20T20:23:51.446Z,4.30
2018-12-20T20:26:55.482Z,5.00
2018-12-20T20:29:59.491Z,4.83
2018-12-20T20:33:03.584Z,5.37
2018-12-20T20:36:08.609Z,5.63
2018-12-20T20:39:12.654Z,4.93
2018-12-20T20:42:16.823Z,5.60
2018-12-20T20:45:20.837Z,5.67
2018-12-20T20:48:24.875Z,5.00
2018-12-20T20:51:28.990Z,5.50
2018-12-20T20:54:33.002Z,7.17
2018-12-20T20:57:37.038Z,7.67
2018-12-20T21:00:41.127Z,6.00
2018-12-20T21:03:45.154Z,5.70
2018-12-20T21:06:49.166Z,6.60
2018-12-20T21:09:53.270Z,5.80
2018-12-20T21:12:57.302Z,5.47
2018-12-20T21:16:01.323Z,6.20
2018-12-20T21:19:05.412Z,6.20
2018-12-20T21:22:09.411Z,6.00
2018-12-20T21:25:13.426Z,5.33
2018-12-20T21:28:17.439Z,5.90
2018-12-20T21:31:21.475Z,6.00
2018-12-20T21:34:25.699Z,5.13
2018-12-20T21:37:29.722Z,5.60
2018-12-20T21:40:33.737Z,4.67
2018-12-20T21:43:37.725Z,5.77
2018-12-20T21:46:41.753Z,4.37
2018-12-20T21:49:45.762Z,4.97
2018-12-20T21:52:49.784Z,4.50
2018-12-20T21:55:53.791Z,4.33
2018-12-20T21:58:57.802Z,3.37
2018-12-20T22:02:02.154Z,3.73
2018-12-20T22:05:06.675Z,4.80
2018-12-20T22:08:10.684Z,5.07
2018-12-20T22:11:14.702Z,4.60
2018-12-20T22:14:18.709Z,5.73
2018-12-20T22:17:22.732Z,4.73
2018-12-20T22:20:26.825Z,5.00
2018-12-20T22:23:30.839Z,4.70
2018-12-20T22:26:34.850Z,4.40
2018-12-20T22:29:38.896Z,4.43
2018-12-20T22:32:42.906Z,3.97
2018-12-20T22:35:47.070Z,4.33
2018-12-20T22:38:51.115Z,3.70
2018-12-20T22:41:55.134Z,3.80
2018-12-20T22:45:00.042Z,3.97
2018-12-20T22:48:04.131Z,4.87
2018-12-20T22:51:08.765Z,4.13
2018-12-20T22:54:12.795Z,4.57
2018-12-20T22:57:17.607Z,3.83
2018-12-20T23:00:23.038Z,3.70
2018-12-20T23:03:27.208Z,2.40
2018-12-20T23:06:31.217Z,2.60
2018-12-20T23:09:35.222Z,3.07
2018-12-20T23:12:39.234Z,3.23
2018-12-20T23:15:43.338Z,2.77
2018-12-20T23:18:47.366Z,2.83
2018-12-20T23:21:51.359Z,3.50
2018-12-20T23:24:55.383Z,3.30
2018-12-20T23:27:59.413Z,2.63
2018-12-20T23:31:03.427Z,3.27
2018-12-20T23:34:07.430Z,4.43
2018-12-20T23:37:11.439Z,4.10
2018-12-20T23:40:15.542Z,3.87
2018-12-20T23:43:19.640Z,3.20
2018-12-20T23:46:23.655Z,3.92
2018-12-20T23:49:27.654Z,3.13
2018-12-20T23:52:32.731Z,3.57
2018-12-20T23:55:36.850Z,2.90
2018-12-20T23:58:40.855Z,3.10
